createdAt,value
2019-03-01T00:00:56.621Z,76.57
2019-03-01T00:03:26.038Z,63.57
2019-03-01T00:06:21.034Z,56.50
2019-03-01T00:09:43.462Z,57.17
2019-03-01T00:12:38.740Z,55.37
2019-03-01T00:15:49.730Z,53.20
2019-03-01T00:18:41.558Z,41.53
2019-03-01T00:21:35.523Z,44.97
2019-03-01T00:24:39.142Z,45.60
2019-03-01T00:27:40.254Z,48.23
2019-03-01T00:31:02.351Z,54.33
2019-03-01T00:34:18.362Z,54.90
2019-03-01T00:37:24.433Z,46.80
2019-03-01T00:40:02.038Z,56.90
2019-03-01T00:42:58.782Z,52.77
2019-03-01T00:45:28.226Z,64.43
2019-03-01T00:47:57.691Z,63.70
2019-03-01T00:50:26.955Z,68.97
2019-03-01T00:52:56.208Z,77.07
2019-03-01T00:55:25.459Z,83.87
2019-03-01T00:57:54.747Z,78.40
2019-03-01T01:00:29.592Z,80.47
2019-03-01T01:02:58.955Z,82.50
2019-03-01T01:05:28.198Z,83.83
2019-03-01T01:07:57.563Z,89.07
2019-03-01T01:10:26.956Z,66.60
2019-03-01T01:12:56.337Z,94.33
2019-03-01T01:15:25.598Z,104.07
2019-03-01T01:17:55.234Z,106.20
2019-03-01T01:20:24.575Z,106.90
2019-03-01T01:22:53.875Z,124.03
2019-03-01T01:25:23.620Z,126.73
2019-03-01T01:27:52.873Z,129.47
2019-03-01T01:30:22.426Z,132.10
2019-03-01T01:32:51.737Z,135.73
2019-03-01T01:35:21.150Z,119.80
2019-03-01T01:37:50.507Z,119.20
2019-03-01T01:40:20.069Z,128.47
2019-03-01T01:42:49.412Z,138.20
2019-03-01T01:45:18.773Z,135.00
2019-03-01T01:47:48.057Z,126.03
2019-03-01T01:50:17.557Z,125.90
2019-03-01T01:52:47.097Z,123.07
2019-03-01T01:55:16.353Z,102.87
2019-03-01T01:57:45.619Z,114.23
2019-03-01T02:00:14.929Z,105.13
2019-03-01T02:02:44.218Z,115.53
2019-03-01T02:05:13.481Z,123.97
2019-03-01T02:07:42.843Z,121.63
2019-03-01T02:10:12.789Z,115.87
2019-03-01T02:12:42.134Z,122.83
2019-03-01T02:15:12.731Z,127.50
2019-03-01T02:17:42.067Z,130.20
2019-03-01T02:20:11.885Z,127.97
2019-03-01T02:22:41.282Z,123.37
2019-03-01T02:25:10.827Z,124.60
2019-03-01T02:27:40.041Z,132.63
2019-03-01T02:30:13.094Z,135.37
2019-03-01T02:32:52.075Z,139.90
2019-03-01T02:35:23.396Z,141.10
2019-03-01T02:37:53.037Z,98.97
2019-03-01T02:40:22.507Z,140.03
2019-03-01T02:42:51.923Z,150.40
2019-03-01T02:45:22.403Z,138.30
2019-03-01T02:48:10.725Z,132.73
2019-03-01T02:50:40.097Z,151.37
2019-03-01T02:53:09.395Z,145.27
2019-03-01T02:55:39.131Z,139.80
2019-03-01T02:58:08.652Z,146.20
2019-03-01T03:00:38.163Z,153.60
2019-03-01T03:03:07.617Z,139.70
2019-03-01T03:05:52.382Z,144.50
2019-03-01T03:08:21.804Z,138.07
2019-03-01T03:10:51.069Z,144.87
2019-03-01T03:13:20.439Z,156.13
2019-03-01T03:15:51.858Z,135.97
2019-03-01T03:18:21.262Z,147.43
2019-03-01T03:20:50.523Z,150.13
2019-03-01T03:23:19.897Z,140.80
2019-03-01T03:25:49.692Z,159.33
2019-03-01T03:28:19.117Z,142.00
2019-03-01T03:30:48.403Z,143.87
2019-03-01T03:33:17.780Z,157.20
2019-03-01T03:35:47.054Z,150.97
2019-03-01T03:38:16.730Z,154.37
2019-03-01T03:40:46.060Z,151.50
2019-03-01T03:43:15.694Z,142.70
2019-03-01T03:45:44.977Z,146.47
2019-03-01T03:48:14.264Z,142.80
2019-03-01T03:50:43.711Z,143.23
2019-03-01T03:53:13.078Z,146.10
2019-03-01T03:55:42.405Z,143.73
2019-03-01T03:58:11.724Z,147.40
2019-03-01T04:00:41.000Z,152.27
2019-03-01T04:03:10.387Z,160.87
2019-03-01T04:05:39.857Z,158.67
2019-03-01T04:08:09.267Z,158.03
2019-03-01T04:10:38.528Z,160.00
2019-03-01T04:13:07.904Z,162.23
2019-03-01T04:15:37.205Z,174.00
2019-03-01T04:18:06.461Z,168.77
2019-03-01T04:20:35.750Z,185.13
2019-03-01T04:23:05.086Z,186.60
2019-03-01T04:25:34.549Z,190.03
2019-03-01T04:28:03.970Z,189.03
2019-03-01T04:30:33.265Z,191.80
2019-03-01T04:33:02.526Z,196.60
2019-03-01T04:35:31.884Z,173.70
2019-03-01T04:38:01.194Z,171.67
2019-03-01T04:40:30.524Z,186.87
2019-03-01T04:43:00.007Z,169.20
2019-03-01T04:45:29.254Z,169.77
2019-03-01T04:47:58.596Z,163.17
2019-03-01T04:50:27.937Z,162.83
2019-03-01T04:52:57.213Z,147.43
2019-03-01T04:55:26.922Z,126.40
2019-03-01T04:57:56.382Z,89.50
2019-03-01T05:00:25.716Z,91.77
2019-03-01T05:02:54.963Z,96.03
2019-03-01T05:05:24.253Z,75.90
2019-03-01T05:07:53.729Z,68.30
2019-03-01T05:10:23.011Z,67.10
2019-03-01T05:12:52.306Z,65.83
2019-03-01T05:15:22.551Z,56.03
2019-03-01T05:17:54.822Z,66.10
2019-03-01T05:20:24.113Z,63.27
2019-03-01T05:22:53.398Z,63.83
2019-03-01T05:25:22.754Z,56.17
2019-03-01T05:27:52.054Z,55.30
2019-03-01T05:30:21.334Z,44.17
2019-03-01T05:32:50.691Z,37.23
2019-03-01T05:35:22.344Z,44.40
2019-03-01T05:37:51.779Z,40.33
2019-03-01T05:40:21.036Z,41.17
2019-03-01T05:42:50.494Z,35.20
2019-03-01T05:45:22.050Z,37.73
2019-03-01T05:47:51.363Z,31.97
2019-03-01T05:50:20.811Z,28.80
2019-03-01T05:52:50.338Z,30.57
2019-03-01T05:55:19.822Z,27.33
2019-03-01T05:58:27.303Z,28.07
2019-03-01T06:00:58.723Z,23.43
2019-03-01T06:04:04.930Z,20.87
2019-03-01T06:06:40.019Z,16.33
2019-03-01T06:09:40.386Z,23.27
2019-03-01T06:12:50.618Z,19.43
2019-03-01T06:16:10.022Z,21.17
2019-03-01T06:19:22.487Z,17.57
2019-03-01T06:22:41.927Z,15.83
2019-03-01T06:25:54.480Z,17.13
2019-03-01T06:29:06.374Z,15.90
2019-03-01T06:32:34.472Z,14.47
2019-03-01T06:35:33.332Z,14.17
2019-03-01T06:38:56.087Z,22.80
2019-03-01T06:42:06.104Z,13.10
2019-03-01T06:45:21.915Z,11.70
2019-03-01T06:47:51.822Z,6.60
2019-03-01T06:50:37.331Z,10.40
2019-03-01T06:53:06.682Z,6.10
2019-03-01T06:55:41.266Z,4.47
2019-03-01T06:58:15.821Z,10.40
2019-03-01T07:00:50.369Z,11.53
2019-03-01T07:03:18.474Z,6.97
2019-03-01T07:05:47.843Z,8.97
2019-03-01T07:08:17.425Z,8.97
2019-03-01T07:10:46.664Z,9.03
2019-03-01T07:13:15.995Z,7.93
2019-03-01T07:15:45.260Z,8.67
2019-03-01T07:18:18.718Z,7.50
2019-03-01T07:20:51.113Z,10.47
2019-03-01T07:23:20.405Z,10.83
2019-03-01T07:25:49.702Z,12.47
2019-03-01T07:28:19.089Z,10.30
2019-03-01T07:30:48.418Z,13.83
2019-03-01T07:33:17.687Z,6.23
2019-03-01T07:35:46.967Z,9.73
2019-03-01T07:38:16.218Z,9.30
2019-03-01T07:40:45.767Z,11.77
2019-03-01T07:43:15.064Z,9.27
2019-03-01T07:45:44.358Z,11.77
2019-03-01T07:48:13.743Z,7.47
2019-03-01T07:50:43.376Z,10.20
2019-03-01T07:53:12.657Z,9.43
2019-03-01T07:55:41.964Z,5.93
2019-03-01T07:58:11.377Z,10.83
2019-03-01T08:00:40.670Z,6.20
2019-03-01T08:03:11.841Z,10.93
2019-03-01T08:05:40.958Z,7.13
2019-03-01T08:08:10.188Z,9.40
2019-03-01T08:10:39.424Z,9.77
2019-03-01T08:13:08.802Z,5.97
2019-03-01T08:15:40.876Z,10.17
2019-03-01T08:18:09.327Z,6.17
2019-03-01T08:20:38.825Z,7.67
2019-03-01T08:23:08.497Z,13.10
2019-03-01T08:25:37.753Z,6.27
2019-03-01T08:28:07.061Z,6.73
2019-03-01T08:30:36.676Z,5.80
2019-03-01T08:33:07.804Z,5.57
2019-03-01T08:35:37.294Z,9.00
2019-03-01T08:38:06.585Z,7.33
2019-03-01T08:40:35.853Z,5.77
2019-03-01T08:43:08.486Z,6.83
2019-03-01T08:45:36.209Z,9.43
2019-03-01T08:48:05.767Z,5.57
2019-03-01T08:50:35.147Z,6.57
2019-03-01T08:53:04.515Z,5.53
2019-03-01T08:55:35.567Z,6.77
2019-03-01T08:58:06.961Z,4.93
2019-03-01T09:00:36.367Z,4.97
2019-03-01T09:03:22.328Z,7.27
2019-03-01T09:05:47.399Z,3.57
2019-03-01T09:08:16.862Z,7.80
2019-03-01T09:10:46.154Z,11.50
2019-03-01T09:13:15.418Z,8.07
2019-03-01T09:15:46.157Z,4.43
2019-03-01T09:18:15.906Z,4.63
2019-03-01T09:20:45.966Z,8.07
2019-03-01T09:23:23.636Z,3.50
2019-03-01T09:25:46.767Z,4.33
2019-03-01T09:28:16.452Z,3.90
2019-03-01T09:30:45.874Z,4.23
2019-03-01T09:33:17.218Z,3.40
2019-03-01T09:36:14.469Z,3.63
2019-03-01T09:38:43.739Z,2.10
2019-03-01T09:41:13.724Z,4.13
2019-03-01T09:43:43.331Z,4.27
2019-03-01T09:46:12.866Z,7.10
2019-03-01T09:48:45.626Z,3.57
2019-03-01T09:51:15.758Z,3.67
2019-03-01T09:54:06.497Z,8.40
2019-03-01T09:56:35.475Z,3.67
2019-03-01T09:59:05.215Z,5.63
2019-03-01T10:01:34.514Z,3.03
2019-03-01T10:04:04.087Z,6.47
2019-03-01T10:06:38.123Z,6.20
2019-03-01T10:09:10.600Z,4.47
2019-03-01T10:11:39.849Z,4.63
2019-03-01T10:14:09.501Z,5.83
2019-03-01T10:16:38.955Z,3.30
2019-03-01T10:19:08.771Z,4.67
2019-03-01T10:21:38.417Z,3.40
2019-03-01T10:24:08.434Z,5.73
2019-03-01T10:26:38.135Z,3.10
2019-03-01T10:29:07.989Z,7.07
2019-03-01T10:31:37.403Z,5.47
2019-03-01T10:34:06.700Z,2.03
2019-03-01T10:36:36.001Z,5.50
2019-03-01T10:39:11.111Z,2.07
2019-03-01T10:41:40.414Z,4.67
2019-03-01T10:44:10.082Z,2.67
2019-03-01T10:46:39.390Z,5.80
2019-03-01T10:49:08.783Z,4.63
2019-03-01T10:51:38.046Z,3.47
2019-03-01T10:54:07.274Z,3.50
2019-03-01T10:56:36.543Z,2.63
2019-03-01T10:59:05.791Z,3.77
2019-03-01T11:01:35.247Z,3.63
2019-03-01T11:04:04.506Z,4.67
2019-03-01T11:06:33.769Z,3.20
2019-03-01T11:09:03.981Z,3.67
2019-03-01T11:11:33.147Z,3.93
2019-03-01T11:14:03.159Z,3.30
2019-03-01T11:16:32.498Z,4.73
2019-03-01T11:19:01.956Z,3.17
2019-03-01T11:21:31.663Z,4.20
2019-03-01T11:24:01.110Z,4.80
2019-03-01T11:26:30.563Z,3.17
2019-03-01T11:28:59.930Z,3.23
2019-03-01T11:31:29.302Z,5.13
2019-03-01T11:33:58.563Z,3.33
2019-03-01T11:36:28.327Z,3.67
2019-03-01T11:38:57.779Z,4.13
2019-03-01T11:41:27.503Z,4.20
2019-03-01T11:43:56.950Z,4.17
2019-03-01T11:46:26.682Z,5.23
2019-03-01T11:48:55.951Z,4.53
2019-03-01T11:51:25.241Z,4.70
2019-03-01T11:53:54.502Z,7.37
2019-03-01T11:56:24.069Z,3.57
2019-03-01T11:58:53.478Z,5.73
2019-03-01T12:01:22.788Z,3.63
2019-03-01T12:03:52.117Z,2.47
2019-03-01T12:06:21.586Z,4.63
2019-03-01T12:08:50.879Z,2.90
2019-03-01T12:11:20.260Z,3.37
2019-03-01T12:13:49.581Z,2.10
2019-03-01T12:16:18.933Z,4.13
2019-03-01T12:18:48.318Z,2.30
2019-03-01T12:21:17.622Z,2.97
2019-03-01T12:23:46.887Z,4.17
2019-03-01T12:26:16.170Z,5.13
2019-03-01T12:28:45.422Z,3.47
2019-03-01T12:31:14.717Z,2.77
2019-03-01T12:33:44.026Z,5.70
2019-03-01T12:36:13.290Z,2.23
2019-03-01T12:38:42.591Z,1.50
2019-03-01T12:41:15.237Z,3.67
2019-03-01T12:43:44.606Z,4.27
2019-03-01T12:46:13.855Z,5.53
2019-03-01T12:48:43.328Z,4.70
2019-03-01T12:51:12.785Z,5.10
2019-03-01T12:53:42.064Z,5.50
2019-03-01T12:56:11.412Z,2.00
2019-03-01T12:58:40.702Z,2.80
2019-03-01T13:01:10.172Z,6.20
2019-03-01T13:03:40.567Z,5.75
2019-03-01T13:06:10.460Z,3.30
2019-03-01T13:08:39.838Z,3.03
2019-03-01T13:11:09.131Z,3.37
2019-03-01T13:13:39.352Z,2.43
2019-03-01T13:16:08.831Z,3.27
2019-03-01T13:18:38.166Z,3.13
2019-03-01T13:21:09.627Z,3.13
2019-03-01T13:23:40.489Z,1.90
2019-03-01T13:26:09.510Z,3.17
2019-03-01T13:28:38.865Z,2.50
2019-03-01T13:31:11.474Z,2.30
2019-03-01T13:33:39.499Z,2.63
2019-03-01T13:36:08.771Z,3.10
2019-03-01T13:38:38.015Z,2.17
2019-03-01T13:41:07.435Z,4.33
2019-03-01T13:43:36.769Z,2.10
2019-03-01T13:46:06.176Z,2.53
2019-03-01T13:48:35.639Z,2.90
2019-03-01T13:51:04.950Z,3.10
2019-03-01T13:53:34.327Z,2.80
2019-03-01T13:56:03.776Z,2.23
2019-03-01T13:58:33.089Z,7.60
2019-03-01T14:01:02.403Z,4.47
2019-03-01T14:03:31.756Z,4.43
2019-03-01T14:06:02.249Z,4.70
2019-03-01T14:08:34.651Z,3.33
2019-03-01T14:11:03.957Z,3.70
2019-03-01T14:13:33.523Z,5.00
2019-03-01T14:16:02.824Z,3.30
2019-03-01T14:18:33.432Z,6.07
2019-03-01T14:21:03.941Z,7.30
2019-03-01T14:23:33.552Z,5.70
2019-03-01T14:26:02.877Z,2.00
2019-03-01T14:28:32.127Z,3.77
2019-03-01T14:31:04.077Z,4.37
2019-03-01T14:33:33.139Z,3.37
2019-03-01T14:36:03.833Z,5.30
2019-03-01T14:38:33.241Z,3.77
2019-03-01T14:41:02.771Z,1.77
2019-03-01T14:43:32.629Z,2.87
2019-03-01T14:46:01.974Z,2.57
2019-03-01T14:48:31.241Z,1.97
2019-03-01T14:51:00.670Z,4.97
2019-03-01T14:53:31.133Z,4.33
2019-03-01T14:56:07.834Z,2.80
2019-03-01T14:58:47.801Z,1.80
2019-03-01T15:01:37.196Z,1.27
2019-03-01T15:04:06.804Z,2.43
2019-03-01T15:06:37.229Z,3.27
2019-03-01T15:09:07.727Z,1.87
2019-03-01T15:11:37.004Z,4.90
2019-03-01T15:14:12.244Z,2.33
2019-03-01T15:16:39.224Z,5.73
2019-03-01T15:19:09.174Z,4.27
2019-03-01T15:21:41.582Z,4.17
2019-03-01T15:24:10.848Z,1.03
2019-03-01T15:26:40.118Z,3.27
2019-03-01T15:29:09.410Z,3.27
2019-03-01T15:31:38.779Z,1.83
2019-03-01T15:34:08.082Z,3.77
2019-03-01T15:36:37.418Z,4.10
2019-03-01T15:39:08.474Z,3.17
2019-03-01T15:41:39.109Z,4.70
2019-03-01T15:44:08.835Z,4.80
2019-03-01T15:46:38.091Z,4.93
2019-03-01T15:49:07.372Z,5.13
2019-03-01T15:51:38.132Z,2.93
2019-03-01T15:54:07.714Z,5.23
2019-03-01T15:56:39.559Z,1.87
2019-03-01T15:59:09.392Z,1.83
2019-03-01T16:01:39.125Z,2.33
2019-03-01T16:04:08.390Z,2.67
2019-03-01T16:06:37.653Z,2.73
2019-03-01T16:09:13.419Z,5.40
2019-03-01T16:11:43.038Z,2.83
2019-03-01T16:14:12.337Z,2.90
2019-03-01T16:16:41.685Z,5.33
2019-03-01T16:19:13.873Z,2.40
2019-03-01T16:21:43.107Z,1.10
2019-03-01T16:24:13.331Z,2.90
2019-03-01T16:26:42.637Z,9.67
2019-03-01T16:29:12.070Z,3.43
2019-03-01T16:31:41.480Z,1.57
2019-03-01T16:34:10.806Z,3.13
2019-03-01T16:36:46.733Z,3.17
2019-03-01T16:39:16.577Z,5.27
2019-03-01T16:41:46.015Z,3.53
2019-03-01T16:44:15.303Z,3.50
2019-03-01T16:46:44.870Z,1.93
2019-03-01T16:49:14.174Z,0.77
2019-03-01T16:51:43.485Z,1.07
2019-03-01T16:54:16.289Z,2.40
2019-03-01T16:56:43.835Z,0.80
2019-03-01T16:59:13.106Z,1.17
2019-03-01T17:01:42.706Z,1.07
2019-03-01T17:04:12.092Z,1.30
2019-03-01T17:06:41.699Z,1.80
2019-03-01T17:09:11.745Z,1.53
2019-03-01T17:11:42.401Z,2.50
2019-03-01T17:14:11.931Z,1.30
2019-03-01T17:16:41.594Z,2.63
2019-03-01T17:19:10.977Z,1.43
2019-03-01T17:21:40.677Z,1.47
2019-03-01T17:24:12.319Z,1.57
2019-03-01T17:26:44.095Z,2.67
2019-03-01T17:29:13.410Z,1.47
2019-03-01T17:31:42.999Z,3.30
2019-03-01T17:34:12.598Z,2.43
2019-03-01T17:36:42.042Z,1.57
2019-03-01T17:39:11.544Z,1.17
2019-03-01T17:41:44.686Z,1.87
2019-03-01T17:44:11.908Z,1.00
2019-03-01T17:46:41.255Z,2.07
2019-03-01T17:49:10.478Z,2.83
2019-03-01T17:51:39.790Z,1.67
2019-03-01T17:54:09.221Z,1.80
2019-03-01T17:56:38.664Z,1.87
2019-03-01T17:59:08.330Z,3.23
2019-03-01T18:01:40.305Z,2.53
2019-03-01T18:04:09.965Z,2.13
2019-03-01T18:06:39.254Z,2.00
2019-03-01T18:09:08.946Z,2.23
2019-03-01T18:11:40.707Z,3.67
2019-03-01T18:14:09.308Z,6.70
2019-03-01T18:16:38.647Z,4.73
2019-03-01T18:19:07.993Z,4.73
2019-03-01T18:21:37.320Z,4.30
2019-03-01T18:24:06.694Z,4.53
2019-03-01T18:26:36.438Z,4.20
2019-03-01T18:29:08.406Z,4.93
2019-03-01T18:31:38.030Z,6.30
2019-03-01T18:34:07.310Z,3.93
2019-03-01T18:36:36.570Z,3.30
2019-03-01T18:39:10.944Z,2.97
2019-03-01T18:41:40.895Z,3.20
2019-03-01T18:44:10.173Z,2.63
2019-03-01T18:46:39.522Z,4.70
2019-03-01T18:49:08.901Z,3.93
2019-03-01T18:51:42.347Z,3.20
2019-03-01T18:54:09.268Z,2.50
2019-03-01T18:56:38.562Z,3.47
2019-03-01T18:59:07.815Z,3.27
2019-03-01T19:01:37.204Z,2.70
2019-03-01T19:04:06.573Z,3.10
2019-03-01T19:06:35.853Z,5.07
2019-03-01T19:09:08.053Z,4.67
2019-03-01T19:11:38.034Z,3.67
2019-03-01T19:14:08.207Z,4.10
2019-03-01T19:16:37.588Z,4.97
2019-03-01T19:19:06.842Z,5.77
2019-03-01T19:21:36.141Z,5.33
2019-03-01T19:24:08.056Z,3.47
2019-03-01T19:26:37.342Z,4.73
2019-03-01T19:29:07.098Z,5.30
2019-03-01T19:31:36.319Z,3.00
2019-03-01T19:34:05.601Z,6.10
2019-03-01T19:36:35.542Z,5.63
2019-03-01T19:39:10.537Z,8.23
2019-03-01T19:41:39.838Z,7.77
2019-03-01T19:44:09.101Z,5.23
2019-03-01T19:46:38.360Z,5.50
2019-03-01T19:49:09.418Z,4.23
2019-03-01T19:51:38.638Z,4.00
2019-03-01T19:54:08.436Z,6.20
2019-03-01T19:56:37.840Z,1.90
2019-03-01T19:59:07.206Z,4.03
2019-03-01T20:01:36.513Z,4.43
2019-03-01T20:04:06.355Z,3.70
2019-03-01T20:06:35.601Z,6.07
2019-03-01T20:09:08.420Z,5.17
2019-03-01T20:11:37.598Z,4.47
2019-03-01T20:14:07.073Z,3.80
2019-03-01T20:16:36.355Z,4.30
2019-03-01T20:19:06.048Z,5.07
2019-03-01T20:21:35.399Z,1.60
2019-03-01T20:24:05.228Z,4.17
2019-03-01T20:26:35.871Z,5.47
2019-03-01T20:29:05.347Z,3.87
2019-03-01T20:31:36.822Z,4.53
2019-03-01T20:34:05.883Z,3.53
2019-03-01T20:36:35.132Z,2.93
2019-03-01T20:39:05.376Z,2.10
2019-03-01T20:41:35.922Z,2.30
2019-03-01T20:44:05.849Z,3.67
2019-03-01T20:46:35.115Z,2.80
2019-03-01T20:49:04.751Z,2.83
2019-03-01T20:51:34.139Z,3.43
2019-03-01T20:54:03.839Z,1.50
2019-03-01T20:56:33.194Z,2.47
2019-03-01T20:59:02.527Z,3.20
2019-03-01T21:01:33.724Z,2.27
2019-03-01T21:04:04.866Z,2.53
2019-03-01T21:06:37.342Z,2.77
2019-03-01T21:09:07.086Z,3.80
2019-03-01T21:11:36.529Z,3.63
2019-03-01T21:14:05.781Z,3.13
2019-03-01T21:16:35.069Z,7.60
2019-03-01T21:19:05.853Z,3.67
2019-03-01T21:21:35.472Z,3.53
2019-03-01T21:24:04.737Z,2.53
2019-03-01T21:26:34.039Z,2.83
2019-03-01T21:29:03.381Z,4.03
2019-03-01T21:31:35.388Z,3.40
2019-03-01T21:34:03.901Z,4.57
2019-03-01T21:36:33.936Z,3.20
2019-03-01T21:39:04.796Z,3.93
2019-03-01T21:41:34.584Z,2.63
2019-03-01T21:44:04.026Z,3.57
2019-03-01T21:46:34.125Z,5.30
2019-03-01T21:49:04.253Z,3.33
2019-03-01T21:51:34.887Z,4.43
2019-03-01T21:54:04.799Z,3.27
2019-03-01T21:56:34.099Z,5.33
2019-03-01T21:59:03.369Z,2.80
2019-03-01T22:01:32.679Z,3.43
2019-03-01T22:04:02.492Z,8.07
2019-03-01T22:06:32.318Z,1.70
2019-03-01T22:09:01.590Z,1.53
2019-03-01T22:11:30.927Z,1.27
2019-03-01T22:14:00.321Z,2.40
2019-03-01T22:16:32.826Z,1.13
2019-03-01T22:19:00.558Z,1.30
2019-03-01T22:21:30.110Z,1.20
2019-03-01T22:23:59.776Z,1.87
2019-03-01T22:26:29.306Z,1.97
2019-03-01T22:28:59.089Z,2.53
2019-03-01T22:31:28.934Z,1.90
2019-03-01T22:33:58.511Z,2.97
2019-03-01T22:36:27.915Z,1.90
2019-03-01T22:38:57.156Z,1.07
2019-03-01T22:41:26.699Z,2.00
2019-03-01T22:43:58.365Z,1.57
2019-03-01T22:46:27.238Z,3.17
2019-03-01T22:48:57.562Z,2.57
2019-03-01T22:51:27.328Z,3.27
2019-03-01T22:53:56.710Z,2.73
2019-03-01T22:56:26.278Z,1.20
2019-03-01T22:58:56.083Z,3.43
2019-03-01T23:01:43.253Z,1.60
2019-03-01T23:04:13.030Z,1.07
2019-03-01T23:06:42.379Z,1.70
2019-03-01T23:09:15.955Z,2.33
2019-03-01T23:11:45.356Z,2.10
2019-03-01T23:14:14.637Z,2.50
2019-03-01T23:16:44.095Z,1.20
2019-03-01T23:19:16.210Z,1.80
2019-03-01T23:21:44.911Z,1.17
2019-03-01T23:24:14.291Z,2.03
2019-03-01T23:26:43.747Z,2.47
2019-03-01T23:29:15.676Z,2.70
2019-03-01T23:31:44.772Z,1.57
2019-03-01T23:34:14.337Z,2.83
2019-03-01T23:36:43.687Z,0.90
2019-03-01T23:39:13.424Z,2.47
2019-03-01T23:41:43.532Z,2.30
2019-03-01T23:44:14.372Z,3.60
2019-03-01T23:46:43.626Z,2.60
2019-03-01T23:49:13.032Z,1.27
2019-03-01T23:51:42.518Z,1.00
2019-03-01T23:54:13.726Z,1.70
2019-03-01T23:56:43.088Z,2.70
2019-03-01T23:59:12.947Z,2.70
